Time;durP1;ratioP1;P1;durP2;ratioP2;P2;SDS_P1;SDS_P2;PMS_P1;PMS_P2;Temp;Humidity;BMP_temperature;BMP_pressure;BME280_temperature;BME280_humidity;BME280_pressure;Samples;Min_cycle;Max_cycle;Signal;HPM_P1;HPM_P2
2024/03/13 00:02:43;;;;;;;29.55;15.68;;;9.30;99.90;;;;;;20675948;28;20030;-49
2024/03/13 00:12:44;;;;;;;31.75;15.27;;;9.40;99.90;;;;;;20669933;28;20034;-48
2024/03/13 00:22:45;;;;;;;27.33;14.07;;;9.40;99.90;;;;;;20666783;28;20038;-48
2024/03/13 00:32:46;;;;;;;27.02;13.95;;;9.40;99.90;;;;;;20666869;28;20049;-51
2024/03/13 00:42:47;;;;;;;29.60;14.17;;;9.50;99.90;;;;;;20673903;28;20034;-51
2024/03/13 00:52:47;;;;;;;36.22;15.07;;;9.60;99.90;;;;;;20658222;28;20054;-48
2024/03/13 01:02:48;;;;;;;37.73;16.27;;;9.60;99.90;;;;;;20663903;28;20065;-48
2024/03/13 01:12:49;;;;;;;67.43;20.13;;;9.70;1.00;;;;;;20664658;28;20437;-50
2024/03/13 01:22:49;;;;;;;55.60;19.25;;;9.80;1.00;;;;;;20644394;28;20049;-48
2024/03/13 01:32:50;;;;;;;64.20;20.77;;;9.80;1.00;;;;;;20648084;28;20038;-48
2024/03/13 02:03:52;;;;;;;63.90;22.95;;;10.00;1.00;;;;;;20656118;28;20043;-49
2024/03/13 02:13:52;;;;;;;69.57;20.70;;;10.10;1.00;;;;;;20661036;28;20176;-47
2024/03/13 02:23:56;;;;;;;67.00;21.63;;;10.30;1.00;;;;;;20662112;28;20765;-48
2024/03/13 02:33:57;;;;;;;55.78;20.05;;;10.50;1.00;;;;;;20661282;28;20188;-50
2024/03/13 02:43:59;;;;;;;44.72;17.25;;;10.60;1.00;;;;;;20661805;28;20041;-49
2024/03/13 02:53:59;;;;;;;37.75;17.00;;;10.60;1.00;;;;;;20664152;28;20034;-48
2024/03/13 03:04:00;;;;;;;40.58;18.20;;;10.70;1.00;;;;;;20661011;28;20049;-48
2024/03/13 03:14:04;;;;;;;35.08;16.35;;;10.80;1.00;;;;;;20673256;28;20506;-48
2024/03/13 03:24:05;;;;;;;36.90;16.88;;;10.80;1.00;;;;;;20673709;28;20057;-50
2024/03/13 03:34:06;;;;;;;37.70;16.90;;;10.80;99.90;;;;;;20678482;28;20053;-47
2024/03/13 03:44:07;;;;;;;37.60;16.23;;;10.80;99.90;;;;;;20673635;28;20061;-48
2024/03/13 03:54:07;;;;;;;44.33;18.23;;;10.70;99.90;;;;;;20675957;28;20211;-48
2024/03/13 04:04:08;;;;;;;52.03;18.60;;;10.70;99.90;;;;;;20671192;28;20054;-48
2024/03/13 04:14:12;;;;;;;43.07;19.33;;;10.70;99.90;;;;;;20668796;28;20096;-48
2024/03/13 04:24:13;;;;;;;43.00;18.75;;;10.70;99.90;;;;;;20668067;28;20458;-48
2024/03/13 04:34:14;;;;;;;50.53;19.15;;;10.70;99.90;;;;;;20672628;28;20030;-48
2024/03/13 04:44:14;;;;;;;56.73;20.73;;;10.70;99.90;;;;;;20671749;28;20076;-49
2024/03/13 04:54:16;;;;;;;41.87;18.60;;;10.70;99.90;;;;;;20669851;28;20459;-49
2024/03/13 05:04:18;;;;;;;41.95;19.27;;;10.70;99.90;;;;;;20666911;28;20046;-48
2024/03/13 05:14:19;;;;;;;39.22;17.20;;;10.70;99.90;;;;;;20662081;28;20034;-48
2024/03/13 05:24:19;;;;;;;43.80;17.00;;;10.60;99.90;;;;;;20661030;28;20042;-48
2024/03/13 05:34:21;;;;;;;32.17;14.93;;;10.60;99.90;;;;;;20662589;28;20442;-48
2024/03/13 05:44:22;;;;;;;37.22;15.23;;;10.60;99.90;;;;;;20657727;28;20046;-50
2024/03/13 05:54:23;;;;;;;34.13;14.83;;;10.70;1.00;;;;;;20657727;28;20037;-48
2024/03/13 06:04:24;;;;;;;36.50;14.35;;;10.70;99.90;;;;;;20647973;28;20541;-49
2024/03/13 06:14:25;;;;;;;39.72;13.68;;;10.70;99.90;;;;;;20648307;28;20473;-48
2024/03/13 06:24:32;;;;;;;36.40;16.67;;;10.70;99.90;;;;;;20656054;28;20540;-48
2024/03/13 06:34:32;;;;;;;46.60;17.80;;;10.60;99.90;;;;;;20661732;28;20038;-48
2024/03/13 06:44:33;;;;;;;42.87;15.43;;;10.70;99.90;;;;;;20664399;28;20038;-48
2024/03/13 06:54:34;;;;;;;35.30;13.20;;;10.60;99.90;;;;;;20674180;28;20455;-47
2024/03/13 07:04:34;;;;;;;39.60;12.37;;;10.60;99.90;;;;;;20667196;28;20441;-47
2024/03/13 07:14:35;;;;;;;35.38;12.68;;;10.60;99.90;;;;;;20671159;28;20773;-47
2024/03/13 07:24:36;;;;;;;30.27;11.07;;;10.60;99.90;;;;;;20659154;28;20104;-49
2024/03/13 07:34:36;;;;;;;32.28;10.45;;;10.70;99.90;;;;;;20664822;28;20512;-47
2024/03/13 07:44:37;;;;;;;34.97;10.07;;;10.80;99.90;;;;;;20661823;28;20113;-47
2024/03/13 07:54:38;;;;;;;34.97;10.52;;;10.80;99.90;;;;;;20661065;28;20442;-47
2024/03/13 08:04:39;;;;;;;32.83;10.10;;;10.80;99.90;;;;;;20661316;28;20042;-47
2024/03/13 08:14:39;;;;;;;35.13;10.03;;;10.80;99.90;;;;;;20658936;28;20076;-47
2024/03/13 08:24:40;;;;;;;49.00;11.83;;;10.80;99.90;;;;;;20658464;28;20050;-48
2024/03/13 08:34:43;;;;;;;34.90;11.95;;;10.90;99.90;;;;;;20662975;28;21376;-48
2024/03/13 08:44:43;;;;;;;37.85;11.73;;;11.00;99.90;;;;;;20662864;28;20038;-48
2024/03/13 08:54:44;;;;;;;40.17;12.82;;;11.00;99.90;;;;;;20659151;28;20130;-48
2024/03/13 09:04:45;;;;;;;32.95;12.98;;;11.10;99.90;;;;;;20659818;28;20682;-48
2024/03/13 09:14:46;;;;;;;36.42;11.43;;;11.20;99.90;;;;;;20659623;28;20074;-48
2024/03/13 09:24:46;;;;;;;25.85;9.23;;;11.30;99.90;;;;;;20662589;28;20046;-48
2024/03/13 09:34:51;;;;;;;28.92;9.48;;;11.30;99.90;;;;;;20656839;28;20057;-48
2024/03/13 09:44:52;;;;;;;30.48;7.68;;;11.30;99.90;;;;;;20656050;28;20121;-48
2024/03/13 09:54:53;;;;;;;26.92;7.85;;;11.30;99.90;;;;;;20643249;28;20128;-48
2024/03/13 10:04:54;;;;;;;18.98;7.07;;;11.30;99.90;;;;;;20659372;28;20125;-48
2024/03/13 10:14:55;;;;;;;29.95;8.00;;;11.30;99.90;;;;;;20639835;28;20645;-48
2024/03/13 10:24:59;;;;;;;22.77;7.60;;;11.40;99.90;;;;;;20645621;28;20763;-48
2024/03/13 10:34:59;;;;;;;25.98;9.27;;;11.60;99.90;;;;;;20665685;28;20128;-47
2024/03/13 10:45:00;;;;;;;28.42;11.27;;;11.70;99.90;;;;;;20665831;28;20129;-48
2024/03/13 10:55:01;;;;;;;28.05;11.43;;;11.80;99.90;;;;;;20667544;28;20053;-47
2024/03/13 11:05:03;;;;;;;24.95;9.07;;;11.80;99.90;;;;;;20669545;28;20046;-48
2024/03/13 11:15:07;;;;;;;17.95;7.18;;;11.80;99.90;;;;;;20663181;28;20490;-48
2024/03/13 11:25:17;;;;;;;19.17;5.38;;;11.80;99.90;;;;;;20662244;28;20304;-48
2024/03/13 11:35:19;;;;;;;12.10;3.88;;;11.80;99.90;;;;;;20667025;28;20066;-48
2024/03/13 11:45:20;;;;;;;8.43;3.50;;;11.90;99.90;;;;;;20661945;28;20541;-47
2024/03/13 11:55:28;;;;;;;10.30;3.47;;;12.10;99.90;;;;;;20664357;28;20046;-47
2024/03/13 12:05:32;;;;;;;9.02;3.42;;;12.00;95.60;;;;;;20657898;28;20761;-48
2024/03/13 12:15:33;;;;;;;8.65;4.30;;;11.90;99.90;;;;;;20663047;28;20080;-48
2024/03/13 12:25:35;;;;;;;14.93;3.80;;;11.90;91.10;;;;;;20662543;28;20046;-48
2024/03/13 12:35:36;;;;;;;6.72;2.95;;;12.00;73.60;;;;;;20664735;28;20515;-47
2024/03/13 12:45:37;;;;;;;6.43;2.95;;;12.20;66.00;;;;;;20658769;28;20089;-47
2024/03/13 12:55:38;;;;;;;6.97;2.47;;;12.20;55.80;;;;;;20659189;28;20370;-47
2024/03/13 13:05:39;;;;;;;8.20;2.38;;;12.10;58.90;;;;;;20655046;28;20385;-48
2024/03/13 13:15:41;;;;;;;6.35;2.40;;;12.00;62.90;;;;;;20653336;28;20030;-47
2024/03/13 13:25:41;;;;;;;6.05;2.85;;;12.20;70.50;;;;;;20648798;28;20438;-47
2024/03/13 13:35:42;;;;;;;5.33;3.83;;;12.10;59.50;;;;;;20653510;28;20045;-48
2024/03/13 13:45:44;;;;;;;10.40;5.85;;;12.20;64.10;;;;;;20653721;28;20468;-48
2024/03/13 13:55:44;;;;;;;9.77;6.35;;;12.40;51.60;;;;;;20652293;28;20065;-48
2024/03/13 14:05:45;;;;;;;12.70;6.90;;;12.50;44.70;;;;;;20653834;28;20418;-47
2024/03/13 14:15:46;;;;;;;13.68;7.20;;;12.40;53.10;;;;;;20652981;28;20034;-48
2024/03/13 14:25:46;;;;;;;13.55;7.30;;;12.50;50.90;;;;;;20648875;28;20134;-48
2024/03/13 14:35:47;;;;;;;9.13;6.22;;;12.50;43.60;;;;;;20656841;28;20048;-48
2024/03/13 14:45:48;;;;;;;8.40;5.38;;;12.80;34.30;;;;;;20655750;28;20042;-48
2024/03/13 14:55:48;;;;;;;9.25;4.18;;;12.80;25.40;;;;;;20647590;28;20048;-48
2024/03/13 15:05:49;;;;;;;6.63;2.73;;;12.90;18.30;;;;;;20657872;28;20058;-48
2024/03/13 15:15:50;;;;;;;10.20;4.10;;;12.90;16.00;;;;;;20664848;28;20038;-48
2024/03/13 15:25:51;;;;;;;6.22;2.60;;;12.90;11.20;;;;;;20659519;28;20790;-48
2024/03/13 15:35:52;;;;;;;24.35;16.05;;;12.70;13.30;;;;;;20663470;28;20101;-48
2024/03/13 15:45:53;;;;;;;10.38;3.30;;;12.70;14.70;;;;;;20659330;28;20045;-48
2024/03/13 15:55:53;;;;;;;11.03;4.47;;;12.60;13.50;;;;;;20661216;28;20127;-48
2024/03/13 16:05:54;;;;;;;9.07;3.37;;;12.60;17.90;;;;;;20659626;28;20859;-48
2024/03/13 16:15:55;;;;;;;9.13;3.30;;;12.50;21.40;;;;;;20662230;28;20793;-48
2024/03/13 16:25:55;;;;;;;8.43;2.20;;;12.60;12.40;;;;;;20659911;28;20053;-48
2024/03/13 16:35:57;;;;;;;9.57;3.90;;;12.60;4.20;;;;;;20660837;28;20060;-48
2024/03/13 16:45:59;;;;;;;4.97;2.25;;;12.60;1.00;;;;;;20657416;28;20436;-48
2024/03/13 16:56:01;;;;;;;5.65;1.58;;;12.50;1.00;;;;;;20660466;28;20038;-48
2024/03/13 17:06:01;;;;;;;7.55;2.55;;;12.60;1.00;;;;;;20663992;28;20118;-48
2024/03/13 17:16:02;;;;;;;4.82;2.00;;;12.50;1.00;;;;;;20659663;28;20030;-48
2024/03/13 17:26:03;;;;;;;5.03;2.13;;;12.50;1.00;;;;;;20658043;28;20038;-48
2024/03/13 17:36:07;;;;;;;5.90;2.28;;;12.30;1.00;;;;;;20661165;28;20034;-48
2024/03/13 17:46:08;;;;;;;8.98;2.90;;;12.10;1.00;;;;;;20655936;28;20049;-48
2024/03/13 17:56:09;;;;;;;6.88;3.08;;;12.30;1.00;;;;;;20643610;28;20160;-48
2024/03/13 18:06:18;;;;;;;11.00;3.60;;;12.20;1.00;;;;;;20641905;28;20042;-48
2024/03/13 18:16:19;;;;;;;9.57;3.33;;;12.20;1.00;;;;;;20641913;28;20034;-48
2024/03/13 18:26:20;;;;;;;10.10;3.10;;;12.10;3.40;;;;;;20652239;28;20106;-48
2024/03/13 18:36:20;;;;;;;8.53;3.03;;;12.20;1.90;;;;;;20650463;28;20062;-48
2024/03/13 18:46:22;;;;;;;9.70;2.97;;;12.20;2.90;;;;;;20671399;28;20485;-48
2024/03/13 18:56:22;;;;;;;7.32;2.83;;;12.20;5.10;;;;;;20674715;28;20657;-49
2024/03/13 19:06:23;;;;;;;7.23;2.87;;;12.00;7.20;;;;;;20648506;28;20410;-48
2024/03/13 19:16:25;;;;;;;7.35;3.00;;;12.00;10.00;;;;;;20662805;28;20759;-48
2024/03/13 19:26:28;;;;;;;6.00;3.40;;;11.90;14.20;;;;;;20658025;28;20037;-50
2024/03/13 19:36:29;;;;;;;9.90;4.40;;;11.90;19.60;;;;;;20646432;28;20034;-48
2024/03/13 19:46:30;;;;;;;10.90;5.33;;;11.70;28.40;;;;;;20646049;28;20061;-48
2024/03/13 19:56:31;;;;;;;8.48;4.63;;;11.70;35.20;;;;;;20651668;28;20104;-49
2024/03/13 20:06:32;;;;;;;10.00;4.43;;;11.70;36.40;;;;;;20666395;28;20038;-50
2024/03/13 20:16:35;;;;;;;6.20;3.17;;;11.70;33.20;;;;;;20663478;28;20026;-48
2024/03/13 20:26:41;;;;;;;5.20;2.95;;;11.70;23.00;;;;;;20659703;28;20097;-52
2024/03/13 20:36:41;;;;;;;6.60;3.20;;;11.90;12.00;;;;;;20665301;28;20045;-49
2024/03/13 20:46:43;;;;;;;6.73;2.83;;;11.90;8.00;;;;;;20663067;28;20513;-50
2024/03/13 20:56:43;;;;;;;5.20;2.72;;;12.00;3.40;;;;;;20664354;28;20476;-48
2024/03/13 21:06:44;;;;;;;6.07;3.10;;;12.00;1.00;;;;;;20661062;28;20045;-49
2024/03/13 21:16:46;;;;;;;5.87;3.53;;;12.00;1.00;;;;;;20658645;28;21026;-49
2024/03/13 21:26:47;;;;;;;4.97;3.40;;;11.90;2.10;;;;;;20655459;28;20460;-48
2024/03/13 21:36:48;;;;;;;6.23;3.50;;;11.80;4.60;;;;;;20662256;28;20039;-48
2024/03/13 21:46:49;;;;;;;9.57;4.32;;;11.90;5.30;;;;;;20656257;28;21241;-48
2024/03/13 21:56:49;;;;;;;9.17;4.60;;;11.80;6.50;;;;;;20656316;28;20501;-48
2024/03/13 22:06:50;;;;;;;7.40;4.05;;;11.80;8.40;;;;;;20642883;28;20049;-48
2024/03/13 22:16:51;;;;;;;8.63;4.83;;;11.90;7.80;;;;;;20620381;28;20225;-48
2024/03/13 22:26:51;;;;;;;9.65;5.60;;;11.80;9.70;;;;;;20651653;28;21106;-48
2024/03/13 22:36:52;;;;;;;7.43;5.72;;;11.80;10.10;;;;;;20643865;28;20537;-48
2024/03/13 22:46:53;;;;;;;9.77;6.77;;;11.70;13.80;;;;;;20649751;28;20567;-49
2024/03/13 22:56:54;;;;;;;10.18;7.45;;;11.60;16.90;;;;;;20653398;28;20556;-49
2024/03/13 23:06:54;;;;;;;10.13;7.40;;;11.60;20.70;;;;;;20657167;28;20038;-48
2024/03/13 23:16:55;;;;;;;10.13;7.68;;;11.40;25.10;;;;;;20658049;28;20042;-48
2024/03/13 23:26:55;;;;;;;12.20;9.00;;;11.20;30.80;;;;;;20654975;28;20046;-48
2024/03/13 23:36:56;;;;;;;13.52;9.25;;;11.10;40.80;;;;;;20669998;28;20042;-48
2024/03/13 23:46:57;;;;;;;12.40;9.10;;;11.00;49.50;;;;;;20663048;28;20108;-48
2024/03/13 23:56:57;;;;;;;11.73;8.52;;;10.90;54.80;;;;;;20664877;28;20798;-48
